Time;durP1;ratioP1;P1;durP2;ratioP2;P2;SDS_P1;SDS_P2;PMS_P1;PMS_P2;Temp;Humidity;BMP_temperature;BMP_pressure;BME280_temperature;BME280_humidity;BME280_pressure;Samples;Min_cycle;Max_cycle;Signal;HPM_P1;HPM_P2
2024/01/22 00:00:12;;;;;;;290.30;141.10;;;;;;;-4.23;82.87;98928.11;106937;1279;23783;-82
2024/01/22 00:03:01;;;;;;;108.70;74.10;;;;;;;-4.28;83.32;98926.70;106595;1271;22553;-83
2024/01/22 00:05:29;;;;;;;81.60;68.10;;;;;;;-4.40;84.21;98933.88;107150;1272;25116;-81
2024/01/22 00:07:58;;;;;;;105.20;72.30;;;;;;;-4.47;84.06;98932.29;106706;1278;22657;-83
2024/01/22 00:10:26;;;;;;;101.60;70.90;;;;;;;-4.48;83.93;98931.21;107058;1278;23063;-82
2024/01/22 00:12:53;;;;;;;72.70;57.50;;;;;;;-4.44;83.79;98929.79;107042;1278;25272;-81
2024/01/22 00:15:21;;;;;;;81.20;63.20;;;;;;;-4.42;84.51;98934.52;106758;1264;23892;-82
2024/01/22 00:17:50;;;;;;;67.70;58.70;;;;;;;-4.45;84.52;98930.83;106918;1279;22568;-83
2024/01/22 00:20:18;;;;;;;72.00;62.00;;;;;;;-4.40;84.71;98939.30;106891;1263;23922;-84
2024/01/22 00:22:46;;;;;;;68.20;60.40;;;;;;;-4.44;86.37;98930.48;106557;1279;25366;-81
2024/01/22 00:25:14;;;;;;;62.90;56.20;;;;;;;-4.46;85.97;98934.10;106562;1264;24333;-80
2024/01/22 00:27:42;;;;;;;68.40;58.30;;;;;;;-4.41;85.21;98940.92;106646;1257;22533;-89
2024/01/22 00:30:10;;;;;;;63.50;54.50;;;;;;;-4.44;85.06;98939.23;106573;1269;23346;-80
2024/01/22 00:32:39;;;;;;;67.10;56.90;;;;;;;-4.42;85.15;98940.45;106998;1279;25420;-84
2024/01/22 00:35:07;;;;;;;63.90;57.30;;;;;;;-4.44;86.18;98940.85;108909;1279;22488;-83
2024/01/22 00:37:35;;;;;;;65.80;57.30;;;;;;;-4.53;86.24;98942.79;108461;1278;25411;-88
2024/01/22 00:40:03;;;;;;;67.30;60.20;;;;;;;-4.50;86.26;98935.83;107243;1275;22588;-90
2024/01/22 00:42:31;;;;;;;65.20;58.10;;;;;;;-4.42;85.88;98932.38;107285;1279;24106;-90
2024/01/22 00:44:59;;;;;;;61.50;53.10;;;;;;;-4.38;85.46;98927.39;107076;1275;22570;-85
2024/01/22 00:47:27;;;;;;;71.80;54.50;;;;;;;-4.38;85.34;98926.05;107099;1267;24516;-87
2024/01/22 00:49:55;;;;;;;58.70;52.30;;;;;;;-4.40;85.65;98932.89;107187;1278;22591;-90
2024/01/22 00:52:23;;;;;;;57.00;51.00;;;;;;;-4.47;85.86;98931.72;107500;1275;22537;-90
2024/01/22 00:54:51;;;;;;;55.80;49.60;;;;;;;-4.46;85.34;98919.72;107439;1266;22848;-89
2024/01/22 00:57:19;;;;;;;59.10;52.80;;;;;;;-4.41;85.33;98918.05;106782;1276;22637;-86
2024/01/22 00:59:47;;;;;;;61.30;54.20;;;;;;;-4.45;86.40;98927.83;107441;1276;22543;-88
2024/01/22 01:02:15;;;;;;;62.20;55.40;;;;;;;-4.65;86.83;98917.43;107591;1273;24370;-89
2024/01/22 01:04:44;;;;;;;60.80;54.40;;;;;;;-4.80;86.30;98912.31;106972;1257;22553;-86
2024/01/22 01:07:14;;;;;;;59.10;52.70;;;;;;;-4.86;85.85;98917.20;107695;1271;22566;-89
2024/01/22 01:09:42;;;;;;;55.30;49.30;;;;;;;-4.95;86.17;98916.06;107972;1279;25939;-91
2024/01/22 01:12:10;;;;;;;53.40;47.00;;;;;;;-5.02;85.97;98917.29;107143;1278;22673;-87
2024/01/22 01:14:38;;;;;;;61.40;54.70;;;;;;;-5.07;87.05;98923.63;107115;1256;24755;-89
2024/01/22 01:17:06;;;;;;;60.00;53.50;;;;;;;-5.16;86.90;98927.08;107936;1271;22825;-91
2024/01/22 01:19:35;;;;;;;61.90;55.20;;;;;;;-5.17;86.27;98925.93;107209;1278;22683;-88
2024/01/22 01:22:03;;;;;;;57.10;51.10;;;;;;;-5.30;85.99;98913.34;107193;1268;25552;-90
2024/01/22 01:24:31;;;;;;;59.50;53.30;;;;;;;-5.35;85.98;98903.90;107539;1279;23026;-90
2024/01/22 01:26:59;;;;;;;58.10;52.20;;;;;;;-5.38;86.07;98898.27;107408;1264;22613;-86
2024/01/22 01:29:27;;;;;;;51.80;46.20;;;;;;;-5.35;86.09;98891.67;106991;1266;24252;-90
2024/01/22 01:31:55;;;;;;;55.50;49.50;;;;;;;-5.30;86.08;98884.28;107000;1278;25335;-87
2024/01/22 01:34:23;;;;;;;56.80;50.80;;;;;;;-5.31;86.76;98882.77;107160;1272;25356;-88
2024/01/22 01:36:52;;;;;;;57.60;48.70;;;;;;;-5.37;86.69;98871.02;107157;1272;25399;-91
2024/01/22 01:39:20;;;;;;;53.10;46.90;;;;;;;-5.38;86.51;98874.11;107141;1275;25429;-91
2024/01/22 01:41:49;;;;;;;49.80;44.10;;;;;;;-5.42;86.50;98871.61;107262;1267;27750;-90
2024/01/22 01:44:17;;;;;;;50.10;44.60;;;;;;;-5.40;86.80;98860.00;107597;1278;22566;-88
2024/01/22 01:46:45;;;;;;;57.40;48.10;;;;;;;-5.33;86.83;98840.82;107178;1278;23421;-84
2024/01/22 01:49:13;;;;;;;55.10;49.00;;;;;;;-5.25;86.57;98844.65;107278;1279;22535;-84
2024/01/22 01:51:41;;;;;;;57.80;50.80;;;;;;;-5.34;86.79;98852.48;106904;1273;22563;-87
2024/01/22 01:54:11;;;;;;;57.30;51.00;;;;;;;-5.48;87.49;98858.56;107094;1278;25433;-85
2024/01/22 01:56:39;;;;;;;56.30;50.10;;;;;;;-5.55;87.41;98853.77;107158;1278;25290;-86
2024/01/22 01:59:08;;;;;;;58.80;49.90;;;;;;;-5.50;87.50;98844.39;108824;1278;22603;-84
2024/01/22 02:01:36;;;;;;;57.20;51.20;;;;;;;-5.36;87.38;98837.13;109099;1256;22551;-89
2024/01/22 02:04:06;;;;;;;54.80;48.90;;;;;;;-5.27;86.88;98831.55;107181;1276;22588;-87
2024/01/22 02:06:34;;;;;;;56.30;49.40;;;;;;;-5.29;86.15;98824.48;107108;1271;23299;-88
2024/01/22 02:09:02;;;;;;;49.50;44.10;;;;;;;-5.34;86.07;98816.75;107290;1279;23856;-85
2024/01/22 02:11:30;;;;;;;52.60;46.90;;;;;;;-5.36;86.11;98812.44;110045;1272;24216;-88
2024/01/22 02:13:58;;;;;;;51.80;44.20;;;;;;;-5.33;86.39;98812.94;108144;1275;22648;-89
2024/01/22 02:16:26;;;;;;;53.90;48.10;;;;;;;-5.35;87.19;98815.96;107010;1279;24192;-87
2024/01/22 02:18:54;;;;;;;53.90;48.20;;;;;;;-5.38;87.19;98812.67;106708;1261;23834;-86
2024/01/22 02:21:23;;;;;;;53.40;47.90;;;;;;;-5.41;86.95;98808.95;106731;1275;25236;-88
2024/01/22 02:23:51;;;;;;;52.80;46.40;;;;;;;-5.53;86.54;98800.72;107586;1268;25506;-87
2024/01/22 02:26:19;;;;;;;57.10;50.10;;;;;;;-5.57;86.49;98800.08;109850;1279;22336;-82
2024/01/22 02:28:46;;;;;;;54.90;49.00;;;;;;;-5.60;86.40;98788.29;110082;1278;22557;-86
2024/01/22 02:31:16;;;;;;;52.90;47.10;;;;;;;-5.61;86.20;98783.92;109017;1269;22588;-87
2024/01/22 02:33:44;;;;;;;52.10;46.50;;;;;;;-5.64;86.33;98787.23;107256;1278;22606;-87
2024/01/22 02:36:12;;;;;;;54.90;47.30;;;;;;;-5.62;86.57;98782.45;107443;1278;25425;-87
2024/01/22 02:38:40;;;;;;;51.60;46.10;;;;;;;-5.62;86.94;98776.77;107145;1271;22537;-87
2024/01/22 02:41:08;;;;;;;50.20;44.90;;;;;;;-5.66;87.04;98780.65;107012;1273;22537;-86
2024/01/22 02:43:36;;;;;;;51.70;46.20;;;;;;;-5.73;86.97;98782.60;106642;1272;24237;-87
2024/01/22 02:46:04;;;;;;;53.70;47.50;;;;;;;-5.77;86.65;98778.51;106996;1264;22597;-86
2024/01/22 02:48:32;;;;;;;54.40;48.00;;;;;;;-5.79;86.67;98781.41;107238;1279;22550;-88
2024/01/22 02:51:00;;;;;;;53.40;45.90;;;;;;;-5.81;86.70;98785.05;107698;1275;22499;-86
2024/01/22 02:53:28;;;;;;;48.40;42.40;;;;;;;-5.81;86.98;98784.69;107523;1266;24307;-89
2024/01/22 02:55:56;;;;;;;49.20;43.80;;;;;;;-5.75;87.19;98780.23;107179;1262;22569;-88
2024/01/22 02:58:24;;;;;;;48.80;43.50;;;;;;;-5.68;87.36;98778.02;107096;1269;24631;-87
2024/01/22 03:00:53;;;;;;;53.10;46.90;;;;;;;-5.62;87.40;98772.08;107076;1276;22564;-87
2024/01/22 03:03:21;;;;;;;50.30;44.80;;;;;;;-5.59;87.04;98771.45;107349;1266;23799;-89
2024/01/22 03:05:49;;;;;;;48.80;43.40;;;;;;;-5.59;86.89;98765.77;107020;1266;23471;-87
2024/01/22 03:08:17;;;;;;;51.10;45.60;;;;;;;-5.57;86.73;98763.83;106980;1279;24820;-88
2024/01/22 03:10:45;;;;;;;50.60;45.10;;;;;;;-5.64;86.38;98757.77;107009;1275;22859;-88
2024/01/22 03:13:13;;;;;;;48.80;43.60;;;;;;;-5.72;86.28;98756.73;107190;1278;23007;-89
2024/01/22 03:15:42;;;;;;;48.70;43.40;;;;;;;-5.76;86.15;98757.04;106980;1257;25566;-90
2024/01/22 03:18:09;;;;;;;48.30;42.10;;;;;;;-5.75;86.36;98758.83;107057;1275;25942;-88
2024/01/22 03:20:39;;;;;;;41.80;36.10;;;;;;;-5.65;86.64;98753.14;107233;1276;25224;-90
2024/01/22 03:23:07;;;;;;;42.50;36.30;;;;;;;-5.45;86.88;98748.43;107050;1279;25391;-88
2024/01/22 03:25:35;;;;;;;43.80;39.10;;;;;;;-5.30;86.75;98754.60;107064;1275;23071;-90
2024/01/22 03:28:03;;;;;;;43.90;39.50;;;;;;;-5.20;86.47;98745.75;107104;1264;25311;-90
2024/01/22 03:30:31;;;;;;;39.00;34.80;;;;;;;-5.14;86.33;98740.34;107080;1266;25232;-90
2024/01/22 03:32:59;;;;;;;37.00;33.10;;;;;;;-5.10;86.15;98741.50;107002;1266;25548;-89
2024/01/22 03:35:27;;;;;;;36.40;32.50;;;;;;;-5.15;85.67;98742.59;107035;1279;23347;-88
2024/01/22 03:37:55;;;;;;;31.80;28.40;;;;;;;-5.23;85.60;98733.46;107006;1262;22731;-90
2024/01/22 03:40:23;;;;;;;31.20;27.90;;;;;;;-5.24;85.86;98734.61;107131;1266;22494;-89
2024/01/22 03:42:51;;;;;;;36.20;32.30;;;;;;;-5.16;86.18;98730.61;107098;1257;25326;-89
2024/01/22 03:45:19;;;;;;;35.20;31.30;;;;;;;-5.11;86.06;98718.41;107255;1263;24224;-83
2024/01/22 03:47:47;;;;;;;32.30;27.70;;;;;;;-5.07;85.85;98715.68;110162;1275;22545;-91
2024/01/22 03:50:15;;;;;;;33.00;27.80;;;;;;;-5.03;85.69;98717.48;108002;1279;25394;-90
2024/01/22 03:52:43;;;;;;;29.70;25.70;;;;;;;-4.92;85.63;98716.47;107196;1275;22574;-90
2024/01/22 03:55:11;;;;;;;31.30;27.70;;;;;;;-4.81;85.48;98722.55;109504;1279;22562;-86
2024/01/22 03:57:39;;;;;;;32.20;28.20;;;;;;;-4.79;85.08;98717.23;108203;1266;22838;-85
2024/01/22 04:00:07;;;;;;;35.10;30.90;;;;;;;-4.91;84.93;98710.02;106697;1275;22597;-87
2024/01/22 04:02:35;;;;;;;31.70;27.80;;;;;;;-5.04;84.59;98712.90;106645;1278;25232;-87
2024/01/22 04:05:04;;;;;;;32.80;28.20;;;;;;;-5.12;84.70;98711.96;106688;1269;25598;-87
2024/01/22 04:07:31;;;;;;;27.00;24.10;;;;;;;-5.21;84.30;98715.63;107001;1268;22533;-87
2024/01/22 04:09:59;;;;;;;27.10;23.50;;;;;;;-5.22;85.00;98713.81;106927;1275;22664;-84
2024/01/22 04:12:27;;;;;;;27.10;24.00;;;;;;;-5.14;85.17;98708.34;106986;1279;22538;-86
2024/01/22 04:14:55;;;;;;;31.60;27.60;;;;;;;-5.10;84.91;98702.58;106891;1275;22591;-86
2024/01/22 04:17:23;;;;;;;34.30;28.20;;;;;;;-5.12;84.37;98705.77;106983;1267;24266;-87
2024/01/22 04:19:52;;;;;;;34.00;30.40;;;;;;;-5.24;83.59;98705.02;107013;1269;23921;-87
2024/01/22 04:22:20;;;;;;;31.80;28.10;;;;;;;-5.34;83.40;98703.60;106988;1264;22613;-86
2024/01/22 04:24:48;;;;;;;31.90;25.60;;;;;;;-5.41;83.48;98704.09;107159;1264;22550;-87
2024/01/22 04:27:15;;;;;;;31.20;25.90;;;;;;;-5.47;83.41;98706.34;106936;1273;25803;-86
2024/01/22 04:29:44;;;;;;;31.20;24.00;;;;;;;-5.45;83.76;98698.70;106973;1279;25356;-88
2024/01/22 04:32:12;;;;;;;31.10;27.80;;;;;;;-5.34;83.71;98698.95;107060;1279;24187;-88
2024/01/22 04:34:40;;;;;;;31.40;27.80;;;;;;;-5.39;83.36;98696.82;106662;1266;22548;-86
2024/01/22 04:37:08;;;;;;;35.00;31.20;;;;;;;-5.53;83.16;98700.80;106655;1272;24337;-86
2024/01/22 04:39:39;;;;;;;30.40;26.00;;;;;;;-5.60;82.97;98702.03;106995;1268;24375;-87
2024/01/22 04:42:06;;;;;;;33.10;29.60;;;;;;;-5.73;82.99;98693.40;107088;1272;23893;-87
2024/01/22 04:44:34;;;;;;;29.20;26.10;;;;;;;-5.79;83.20;98692.86;107019;1278;22549;-89
2024/01/22 04:47:02;;;;;;;44.10;37.00;;;;;;;-5.78;82.79;98692.72;106985;1268;22551;-87
2024/01/22 04:49:30;;;;;;;58.70;49.40;;;;;;;-5.89;82.47;98690.69;107046;1273;22570;-87
2024/01/22 04:51:58;;;;;;;45.30;37.50;;;;;;;-5.94;82.81;98690.35;106940;1266;25687;-87
2024/01/22 04:54:26;;;;;;;43.90;39.10;;;;;;;-5.88;83.04;98687.36;106966;1261;22547;-87
2024/01/22 04:56:54;;;;;;;56.40;50.50;;;;;;;-5.80;83.42;98680.55;106756;1269;22533;-87
2024/01/22 04:59:22;;;;;;;51.80;46.20;;;;;;;-5.69;83.31;98669.61;106890;1269;24353;-88
2024/01/22 05:01:50;;;;;;;53.70;47.40;;;;;;;-5.63;82.92;98669.07;107054;1280;24019;-88
2024/01/22 05:04:18;;;;;;;55.00;48.90;;;;;;;-5.72;82.57;98672.73;106959;1278;23230;-88
2024/01/22 05:06:46;;;;;;;59.40;48.90;;;;;;;-5.81;82.65;98673.60;106925;1280;23009;-89
2024/01/22 05:09:15;;;;;;;57.00;51.10;;;;;;;-5.87;82.58;98675.70;106984;1275;26529;-89
2024/01/22 05:11:43;;;;;;;43.80;38.90;;;;;;;-5.97;82.65;98672.33;106991;1272;24219;-87
2024/01/22 05:14:12;;;;;;;36.00;32.00;;;;;;;-5.99;82.87;98665.91;106933;1275;25402;-88
2024/01/22 05:16:40;;;;;;;36.30;32.70;;;;;;;-5.95;82.94;98670.84;107019;1278;22762;-86
2024/01/22 05:19:08;;;;;;;33.20;29.40;;;;;;;-5.93;83.01;98671.66;107001;1279;22661;-87
2024/01/22 05:21:36;;;;;;;32.90;29.50;;;;;;;-5.93;83.38;98669.99;107428;1279;22843;-81
2024/01/22 05:24:04;;;;;;;32.10;28.70;;;;;;;-5.96;83.41;98668.64;109829;1279;22505;-90
2024/01/22 05:26:32;;;;;;;38.50;34.70;;;;;;;-5.94;83.37;98666.88;107713;1279;22595;-88
2024/01/22 05:29:00;;;;;;;38.70;34.60;;;;;;;-5.97;83.07;98663.76;106945;1273;23947;-87
2024/01/22 05:31:28;;;;;;;42.30;38.00;;;;;;;-6.01;83.17;98654.89;106917;1279;25332;-88
2024/01/22 05:33:56;;;;;;;45.10;40.60;;;;;;;-6.04;82.97;98653.91;106965;1269;23928;-90
2024/01/22 05:36:24;;;;;;;40.70;36.70;;;;;;;-6.07;82.96;98653.52;107413;1265;22898;-88
2024/01/22 05:38:53;;;;;;;42.80;37.20;;;;;;;-6.07;83.34;98650.59;107004;1279;23681;-88
2024/01/22 05:41:21;;;;;;;32.70;29.20;;;;;;;-5.98;83.33;98651.63;107073;1279;25496;-87
2024/01/22 05:43:49;;;;;;;36.00;31.90;;;;;;;-5.87;83.14;98647.04;107034;1278;22546;-86
2024/01/22 05:46:17;;;;;;;34.20;29.10;;;;;;;-5.86;83.12;98643.06;106887;1279;23337;-84
2024/01/22 05:48:46;;;;;;;33.50;29.90;;;;;;;-5.85;83.27;98647.75;107590;1257;22557;-86
2024/01/22 05:51:14;;;;;;;33.20;28.80;;;;;;;-5.84;83.31;98647.27;108979;1277;22583;-87
2024/01/22 05:53:42;;;;;;;31.70;28.40;;;;;;;-5.79;83.60;98643.80;107125;1277;25377;-87
2024/01/22 05:56:25;;;;;;;33.80;30.20;;;;;;;-5.70;83.61;98636.86;107331;1275;23856;-87
2024/01/22 05:58:54;;;;;;;31.40;28.10;;;;;;;-5.60;83.82;98627.86;106941;1278;24238;-89
2024/01/22 06:01:24;;;;;;;32.60;29.30;;;;;;;-5.54;83.46;98618.13;108421;1273;22686;-87
2024/01/22 06:03:52;;;;;;;31.80;28.40;;;;;;;-5.48;83.45;98616.47;110084;1279;22692;-88
2024/01/22 06:06:20;;;;;;;30.10;27.00;;;;;;;-5.43;83.41;98605.92;109452;1279;22532;-86
2024/01/22 06:08:49;;;;;;;33.10;29.60;;;;;;;-5.37;83.49;98600.87;108590;1275;24301;-89
2024/01/22 06:11:19;;;;;;;35.30;31.60;;;;;;;-5.34;83.02;98594.85;107668;1279;23886;-89
2024/01/22 06:13:46;;;;;;;37.20;33.10;;;;;;;-5.43;82.60;98593.98;107784;1279;22561;-90
2024/01/22 06:16:29;;;;;;;33.40;29.80;;;;;;;-5.51;82.55;98582.77;107328;1275;22550;-81
2024/01/22 06:18:57;;;;;;;30.20;26.00;;;;;;;-5.45;82.85;98580.88;106972;1279;22595;-80
2024/01/22 06:21:25;;;;;;;27.30;24.40;;;;;;;-5.38;83.15;98576.77;106990;1269;24206;-81
2024/01/22 06:23:53;;;;;;;34.40;30.70;;;;;;;-5.28;83.24;98576.24;106936;1279;22547;-81
2024/01/22 06:26:22;;;;;;;30.50;27.20;;;;;;;-5.23;83.10;98568.02;106868;1278;22549;-82
2024/01/22 06:28:52;;;;;;;31.60;28.30;;;;;;;-5.21;83.41;98555.52;107072;1274;25316;-83
2024/01/22 06:31:20;;;;;;;38.60;34.90;;;;;;;-5.13;83.59;98548.91;107046;1276;22782;-83
2024/01/22 06:33:49;;;;;;;44.30;39.80;;;;;;;-5.02;83.67;98550.06;106842;1270;22547;-84
2024/01/22 06:36:18;;;;;;;37.90;34.10;;;;;;;-4.90;83.60;98545.29;107055;1278;22551;-84
2024/01/22 06:38:48;;;;;;;46.20;41.50;;;;;;;-4.78;83.67;98542.80;107018;1266;24193;-85
2024/01/22 06:41:18;;;;;;;42.50;38.30;;;;;;;-4.59;83.47;98536.52;106929;1279;22709;-84
2024/01/22 06:43:47;;;;;;;42.60;38.10;;;;;;;-4.43;83.07;98539.35;107060;1260;22649;-85
2024/01/22 06:46:16;;;;;;;38.90;34.90;;;;;;;-4.27;83.19;98533.31;107017;1279;22541;-83
2024/01/22 06:48:43;;;;;;;34.00;30.40;;;;;;;-4.07;82.97;98524.58;107030;1269;23347;-82
2024/01/22 06:51:12;;;;;;;33.10;29.20;;;;;;;-3.88;82.82;98525.52;107215;1279;22804;-84
2024/01/22 06:53:40;;;;;;;32.10;28.60;;;;;;;-3.70;82.44;98525.33;106962;1272;22551;-84
2024/01/22 06:56:09;;;;;;;28.40;24.80;;;;;;;-3.51;82.58;98530.54;106600;1279;22709;-83
2024/01/22 06:58:37;;;;;;;29.20;24.60;;;;;;;-3.34;82.33;98528.45;107620;1272;22540;-84
2024/01/22 07:01:07;;;;;;;31.60;25.80;;;;;;;-3.19;82.22;98529.51;106964;1279;24064;-83
2024/01/22 07:03:36;;;;;;;27.00;24.10;;;;;;;-3.03;81.92;98524.98;106965;1268;23585;-82
2024/01/22 07:06:06;;;;;;;24.70;21.40;;;;;;;-2.89;81.66;98521.98;106890;1266;22653;-83
2024/01/22 07:08:34;;;;;;;25.40;22.30;;;;;;;-2.76;81.29;98523.13;106898;1275;23577;-84
2024/01/22 07:11:02;;;;;;;27.70;24.70;;;;;;;-2.58;81.23;98519.92;106844;1279;22547;-83
2024/01/22 07:13:32;;;;;;;25.60;23.00;;;;;;;-2.46;81.03;98510.58;106919;1266;22658;-82
2024/01/22 07:16:00;;;;;;;21.20;19.00;;;;;;;-2.34;81.01;98502.16;106761;1274;22668;-82
2024/01/22 07:18:29;;;;;;;21.30;19.10;;;;;;;-2.21;80.52;98498.57;106800;1263;24187;-82
2024/01/22 07:20:58;;;;;;;19.10;17.10;;;;;;;-2.11;79.73;98490.16;106882;1279;22544;-82
2024/01/22 07:23:27;;;;;;;19.50;17.40;;;;;;;-1.98;79.46;98485.73;107026;1269;23827;-82
2024/01/22 07:25:55;;;;;;;18.80;16.00;;;;;;;-1.84;79.42;98486.47;106901;1279;22564;-82
2024/01/22 07:28:23;;;;;;;17.40;15.60;;;;;;;-1.72;79.27;98480.52;106987;1257;22638;-83
2024/01/22 07:30:51;;;;;;;18.40;16.50;;;;;;;-1.58;79.05;98471.43;106920;1268;24438;-82
2024/01/22 07:33:19;;;;;;;22.00;18.80;;;;;;;-1.47;78.76;98468.40;106936;1266;22645;-83
2024/01/22 07:35:47;;;;;;;29.70;24.90;;;;;;;-1.34;77.94;98468.45;106881;1279;24274;-83
2024/01/22 07:38:15;;;;;;;36.20;30.90;;;;;;;-1.19;77.97;98459.16;106911;1269;22909;-83
2024/01/22 07:40:43;;;;;;;39.70;30.10;;;;;;;-1.07;76.23;98448.46;107031;1279;22545;-82
2024/01/22 07:43:11;;;;;;;31.80;28.00;;;;;;;-0.95;75.30;98440.39;106933;1266;23890;-84
2024/01/22 07:45:39;;;;;;;42.80;34.30;;;;;;;-0.81;74.68;98441.34;106967;1269;22607;-82
2024/01/22 07:48:07;;;;;;;32.70;28.40;;;;;;;-0.66;75.54;98436.87;106930;1278;22706;-82
2024/01/22 07:50:35;;;;;;;62.70;42.80;;;;;;;-0.53;75.85;98439.70;106948;1266;24553;-82
2024/01/22 07:53:03;;;;;;;64.60;43.80;;;;;;;-0.37;76.13;98443.56;106931;1278;22545;-82
2024/01/22 07:55:33;;;;;;;69.80;37.40;;;;;;;-0.22;75.85;98443.20;106975;1275;25568;-87
2024/01/22 07:58:01;;;;;;;82.10;47.60;;;;;;;-0.07;75.80;98448.94;106974;1273;25392;-82
2024/01/22 08:00:29;;;;;;;42.20;32.00;;;;;;;0.08;75.91;98446.73;107174;1269;23639;-81
2024/01/22 08:02:57;;;;;;;43.90;33.60;;;;;;;0.23;75.82;98441.67;107070;1273;22752;-83
2024/01/22 08:05:25;;;;;;;44.90;32.40;;;;;;;0.40;75.53;98440.14;107141;1267;22549;-82
2024/01/22 08:07:53;;;;;;;29.00;24.60;;;;;;;0.55;75.63;98442.29;106943;1275;25336;-83
2024/01/22 08:10:25;;;;;;;32.80;26.80;;;;;;;0.72;75.40;98443.78;107045;1268;22533;-84
2024/01/22 08:12:53;;;;;;;29.20;21.40;;;;;;;0.87;75.09;98434.92;107014;1279;23187;-84
2024/01/22 08:15:20;;;;;;;25.00;19.20;;;;;;;1.03;74.27;98431.28;106932;1259;25274;-84
2024/01/22 08:17:49;;;;;;;25.90;18.80;;;;;;;1.21;73.80;98427.41;107011;1278;22650;-84
2024/01/22 08:20:17;;;;;;;17.80;15.80;;;;;;;1.38;70.62;98425.58;106988;1263;22541;-84
2024/01/22 08:22:47;;;;;;;22.90;17.50;;;;;;;1.59;69.78;98419.89;106889;1279;25281;-85
2024/01/22 08:25:19;;;;;;;20.00;15.70;;;;;;;1.79;71.67;98410.50;106986;1273;24182;-84
2024/01/22 08:27:48;;;;;;;18.60;15.50;;;;;;;1.99;70.16;98403.23;106965;1279;22530;-85
2024/01/22 08:30:16;;;;;;;20.30;17.70;;;;;;;2.20;70.58;98400.98;107210;1269;22572;-84
2024/01/22 08:32:48;;;;;;;26.20;18.10;;;;;;;2.39;68.63;98396.73;107585;1279;22620;-85
2024/01/22 08:35:21;;;;;;;27.30;21.90;;;;;;;2.58;68.55;98385.57;107112;1269;22659;-84
2024/01/22 08:37:52;;;;;;;26.20;21.30;;;;;;;2.78;66.57;98383.02;106992;1264;24907;-85
2024/01/22 08:40:22;;;;;;;24.40;16.10;;;;;;;2.96;66.16;98375.13;107241;1272;22537;-84
2024/01/22 08:42:53;;;;;;;18.30;13.60;;;;;;;3.12;65.87;98373.08;106973;1266;24260;-84
2024/01/22 08:45:22;;;;;;;33.30;16.10;;;;;;;3.26;65.96;98376.54;107050;1269;22689;-84
2024/01/22 08:47:51;;;;;;;19.70;15.80;;;;;;;3.37;65.45;98373.15;107120;1278;22561;-84
2024/01/22 08:50:21;;;;;;;22.50;15.40;;;;;;;3.46;64.08;98368.19;106996;1269;22580;-85
2024/01/22 08:52:53;;;;;;;16.90;14.10;;;;;;;3.52;65.13;98361.95;107094;1279;22652;-86
2024/01/22 08:55:25;;;;;;;22.90;15.90;;;;;;;3.62;64.10;98353.84;106994;1275;22577;-86
2024/01/22 08:57:54;;;;;;;19.70;16.30;;;;;;;3.73;63.24;98351.83;107053;1269;24212;-86
2024/01/22 09:00:23;;;;;;;19.60;16.40;;;;;;;3.85;63.85;98348.33;107058;1273;22499;-85
2024/01/22 09:02:52;;;;;;;17.80;14.50;;;;;;;3.98;61.41;98343.67;107069;1266;23005;-86
2024/01/22 09:05:21;;;;;;;15.70;11.60;;;;;;;4.12;62.90;98338.17;106980;1279;22496;-86
2024/01/22 09:07:49;;;;;;;15.70;11.50;;;;;;;4.29;61.91;98334.98;106849;1266;23004;-86
2024/01/22 09:10:17;;;;;;;18.50;7.90;;;;;;;4.44;58.81;98333.25;106961;1275;22570;-85
2024/01/22 09:12:48;;;;;;;10.50;8.70;;;;;;;4.61;56.67;98327.27;106880;1267;22747;-86
2024/01/22 09:15:17;;;;;;;15.80;8.90;;;;;;;4.81;57.84;98323.58;106912;1273;24223;-86
2024/01/22 09:17:47;;;;;;;9.80;7.90;;;;;;;4.99;55.23;98317.04;107367;1269;23907;-85
2024/01/22 09:20:16;;;;;;;17.90;7.40;;;;;;;5.16;56.10;98317.16;107590;1273;24314;-85
2024/01/22 09:22:44;;;;;;;12.60;6.20;;;;;;;5.31;50.78;98318.84;107068;1276;22632;-85
2024/01/22 09:25:12;;;;;;;7.50;5.10;;;;;;;5.45;48.58;98317.67;107333;1275;23273;-83
2024/01/22 09:27:40;;;;;;;32.80;29.40;;;;;;;5.59;47.86;98316.23;107076;1278;22660;-84
2024/01/22 09:30:08;;;;;;;8.40;5.80;;;;;;;5.70;45.75;98309.80;107049;1264;22593;-85
2024/01/22 09:32:37;;;;;;;8.00;5.10;;;;;;;5.78;46.58;98310.23;107030;1273;22573;-85
2024/01/22 09:35:06;;;;;;;7.20;5.20;;;;;;;5.84;45.14;98307.81;107694;1276;24193;-84
2024/01/22 09:37:34;;;;;;;8.50;6.10;;;;;;;5.88;43.43;98309.66;107440;1269;24292;-84
2024/01/22 09:40:06;;;;;;;17.40;13.40;;;;;;;5.93;44.79;98308.77;107277;1279;26638;-86
2024/01/22 09:42:42;;;;;;;35.90;30.00;;;;;;;5.98;45.14;98307.55;107044;1279;24261;-86
2024/01/22 09:45:11;;;;;;;13.10;9.80;;;;;;;6.00;45.41;98301.95;106974;1279;24191;-84
2024/01/22 09:47:39;;;;;;;17.20;10.90;;;;;;;6.03;43.16;98298.97;107071;1276;22579;-85
2024/01/22 09:50:08;;;;;;;9.00;6.00;;;;;;;6.07;45.84;98292.77;106922;1279;22535;-84
2024/01/22 09:52:44;;;;;;;7.60;6.30;;;;;;;6.12;43.46;98286.44;106922;1276;22725;-85
2024/01/22 09:55:13;;;;;;;7.10;5.30;;;;;;;6.15;42.84;98280.36;106887;1275;197059;-85
2024/01/22 09:57:44;;;;;;;13.70;8.80;;;;;;;6.19;42.72;98276.77;106996;1270;23916;-85
2024/01/22 10:00:16;;;;;;;8.00;5.30;;;;;;;6.22;42.08;98277.77;107075;1279;22538;-86
2024/01/22 10:02:44;;;;;;;7.20;5.10;;;;;;;6.20;40.62;98266.04;106997;1276;23452;-88
2024/01/22 10:05:12;;;;;;;9.10;5.40;;;;;;;6.20;40.57;98273.73;107179;1269;22571;-85
2024/01/22 10:07:40;;;;;;;10.30;5.30;;;;;;;6.19;41.34;98277.48;108268;1279;25435;-85
2024/01/22 10:10:11;;;;;;;10.70;6.80;;;;;;;6.18;41.42;98275.98;107237;1269;25435;-87
2024/01/22 10:13:04;;;;;;;15.50;6.30;;;;;;;6.17;41.83;98279.17;107096;1273;25404;-88
2024/01/22 10:15:34;;;;;;;11.40;6.10;;;;;;;6.18;40.69;98290.68;107138;1278;22595;-84
2024/01/22 10:18:09;;;;;;;10.80;6.30;;;;;;;6.20;41.64;98285.29;107052;1279;22556;-86
2024/01/22 10:20:39;;;;;;;13.70;6.60;;;;;;;6.23;43.12;98282.41;107180;1279;22561;-89
2024/01/22 10:23:08;;;;;;;17.40;10.70;;;;;;;6.31;43.27;98280.96;107138;1275;22621;-85
2024/01/22 10:25:36;;;;;;;18.90;12.90;;;;;;;6.39;42.44;98280.51;107085;1269;25457;-86
2024/01/22 10:28:19;;;;;;;23.70;12.30;;;;;;;6.43;42.57;98282.40;107086;1266;22567;-85
2024/01/22 10:31:04;;;;;;;21.50;9.90;;;;;;;6.50;43.65;98277.40;107062;1279;22547;-85
2024/01/22 10:33:32;;;;;;;22.70;13.90;;;;;;;6.57;42.67;98281.38;106924;1279;22673;-86
2024/01/22 10:36:18;;;;;;;33.70;27.00;;;;;;;6.59;40.58;98283.48;106915;1278;22761;-81
2024/01/22 10:39:03;;;;;;;49.10;40.20;;;;;;;6.59;41.83;98279.30;106933;1279;22551;-86
2024/01/22 10:41:31;;;;;;;33.10;21.90;;;;;;;6.62;39.99;98279.73;107149;1279;22552;-83
2024/01/22 10:44:00;;;;;;;26.70;15.10;;;;;;;6.60;40.17;98281.60;106856;1266;22587;-84
2024/01/22 10:46:28;;;;;;;38.10;22.70;;;;;;;6.58;40.07;98276.39;107085;1263;22557;-84
2024/01/22 10:48:57;;;;;;;34.90;24.00;;;;;;;6.58;39.68;98281.60;107130;1269;22588;-85
2024/01/22 10:51:25;;;;;;;42.90;38.20;;;;;;;6.57;40.43;98281.81;107163;1274;23581;-83
2024/01/22 10:53:54;;;;;;;25.50;22.60;;;;;;;6.56;38.44;98285.45;107146;1276;25370;-84
2024/01/22 10:56:28;;;;;;;21.90;18.40;;;;;;;6.52;37.75;98276.55;107244;1258;23360;-82
2024/01/22 10:59:01;;;;;;;22.30;20.10;;;;;;;6.48;38.19;98267.86;107233;1264;22671;-84
2024/01/22 11:01:34;;;;;;;25.80;18.80;;;;;;;6.47;38.46;98270.04;107080;1279;25427;-85
2024/01/22 11:04:03;;;;;;;17.70;13.90;;;;;;;6.49;38.14;98271.34;107149;1276;22627;-83
2024/01/22 11:06:35;;;;;;;17.50;15.60;;;;;;;6.51;38.73;98268.39;107271;1273;22618;-84
2024/01/22 11:09:05;;;;;;;24.10;16.60;;;;;;;6.54;39.23;98262.68;107125;1279;26710;-83
2024/01/22 11:11:37;;;;;;;27.70;24.10;;;;;;;6.58;39.46;98258.46;107162;1279;24224;-84
2024/01/22 11:14:05;;;;;;;29.60;21.30;;;;;;;6.60;39.56;98253.38;107030;1276;22946;-82
2024/01/22 11:16:33;;;;;;;79.70;37.70;;;;;;;6.60;39.26;98246.73;107033;1279;24327;-83
2024/01/22 11:19:03;;;;;;;68.10;40.20;;;;;;;6.59;39.61;98245.89;107067;1273;22544;-85